sensor_id;sensor_type;location;lat;lon;timestamp;temperature;humidity
78345;DHT22;67620;51.134;6.548;2023-02-26T00:01:38;2.10;65.30
78345;DHT22;67620;51.134;6.548;2023-02-26T00:04:04;2.10;65.40
78345;DHT22;67620;51.134;6.548;2023-02-26T00:06:32;2.10;65.50
78345;DHT22;67620;51.134;6.548;2023-02-26T00:08:58;2.10;65.30
78345;DHT22;67620;51.134;6.548;2023-02-26T00:11:24;2.10;65.30
78345;DHT22;67620;51.134;6.548;2023-02-26T00:13:50;2.10;65.40
78345;DHT22;67620;51.134;6.548;2023-02-26T00:16:32;2.10;65.40
78345;DHT22;67620;51.134;6.548;2023-02-26T00:19:00;2.10;65.60
78345;DHT22;67620;51.134;6.548;2023-02-26T00:21:27;2.10;65.70
78345;DHT22;67620;51.134;6.548;2023-02-26T00:23:53;2.10;65.70
78345;DHT22;67620;51.134;6.548;2023-02-26T00:26:19;2.10;66.10
78345;DHT22;67620;51.134;6.548;2023-02-26T00:28:46;2.10;66.10
78345;DHT22;67620;51.134;6.548;2023-02-26T00:31:14;2.10;66.20
78345;DHT22;67620;51.134;6.548;2023-02-26T00:33:40;2.10;66.40
78345;DHT22;67620;51.134;6.548;2023-02-26T00:39:03;2.20;66.40
78345;DHT22;67620;51.134;6.548;2023-02-26T00:41:31;2.10;66.50
78345;DHT22;67620;51.134;6.548;2023-02-26T00:43:57;2.10;66.60
78345;DHT22;67620;51.134;6.548;2023-02-26T00:46:44;2.10;66.90
78345;DHT22;67620;51.134;6.548;2023-02-26T00:51:47;2.10;67.20
78345;DHT22;67620;51.134;6.548;2023-02-26T00:54:20;2.10;67.40
78345;DHT22;67620;51.134;6.548;2023-02-26T00:56:47;2.10;67.60
78345;DHT22;67620;51.134;6.548;2023-02-26T00:59:13;2.10;67.60
78345;DHT22;67620;51.134;6.548;2023-02-26T01:01:39;2.10;67.70
78345;DHT22;67620;51.134;6.548;2023-02-26T01:04:05;2.10;67.90
78345;DHT22;67620;51.134;6.548;2023-02-26T01:06:33;2.10;68.20
78345;DHT22;67620;51.134;6.548;2023-02-26T01:11:52;2.10;67.80
78345;DHT22;67620;51.134;6.548;2023-02-26T01:14:18;2.10;68.20
78345;DHT22;67620;51.134;6.548;2023-02-26T01:19:38;2.10;68.50
78345;DHT22;67620;51.134;6.548;2023-02-26T01:22:12;2.10;68.70
78345;DHT22;67620;51.134;6.548;2023-02-26T01:24:39;2.10;68.80
78345;DHT22;67620;51.134;6.548;2023-02-26T01:27:05;2.10;68.50
78345;DHT22;67620;51.134;6.548;2023-02-26T01:29:31;2.10;68.40
78345;DHT22;67620;51.134;6.548;2023-02-26T01:32:07;2.10;68.50
78345;DHT22;67620;51.134;6.548;2023-02-26T01:34:37;2.00;68.90
78345;DHT22;67620;51.134;6.548;2023-02-26T01:37:20;2.00;69.00
78345;DHT22;67620;51.134;6.548;2023-02-26T01:40:02;2.10;68.80
78345;DHT22;67620;51.134;6.548;2023-02-26T01:42:36;2.10;68.50
78345;DHT22;67620;51.134;6.548;2023-02-26T01:45:15;2.10;68.30
78345;DHT22;67620;51.134;6.548;2023-02-26T01:48:10;2.10;68.60
78345;DHT22;67620;51.134;6.548;2023-02-26T01:50:37;2.20;68.30
78345;DHT22;67620;51.134;6.548;2023-02-26T01:55:41;2.10;68.60
78345;DHT22;67620;51.134;6.548;2023-02-26T01:58:07;2.10;68.80
78345;DHT22;67620;51.134;6.548;2023-02-26T02:00:32;2.10;68.70
78345;DHT22;67620;51.134;6.548;2023-02-26T02:02:58;2.10;68.60
78345;DHT22;67620;51.134;6.548;2023-02-26T02:05:29;2.10;68.80
78345;DHT22;67620;51.134;6.548;2023-02-26T02:07:56;2.10;68.60
78345;DHT22;67620;51.134;6.548;2023-02-26T02:10:22;2.10;68.90
78345;DHT22;67620;51.134;6.548;2023-02-26T02:13:04;2.10;68.90
78345;DHT22;67620;51.134;6.548;2023-02-26T02:16:01;2.10;68.90
78345;DHT22;67620;51.134;6.548;2023-02-26T02:31:57;1.90;69.20
78345;DHT22;67620;51.134;6.548;2023-02-26T02:37:18;2.00;69.10
78345;DHT22;67620;51.134;6.548;2023-02-26T02:39:50;1.90;68.60
78345;DHT22;67620;51.134;6.548;2023-02-26T02:42:33;1.90;68.80
78345;DHT22;67620;51.134;6.548;2023-02-26T02:45:25;1.90;68.80
78345;DHT22;67620;51.134;6.548;2023-02-26T02:47:58;1.90;68.90
78345;DHT22;67620;51.134;6.548;2023-02-26T02:50:39;1.80;68.80
78345;DHT22;67620;51.134;6.548;2023-02-26T02:53:22;1.80;69.30
78345;DHT22;67620;51.134;6.548;2023-02-26T02:58:33;1.80;69.30
78345;DHT22;67620;51.134;6.548;2023-02-26T03:01:03;1.80;69.10
78345;DHT22;67620;51.134;6.548;2023-02-26T03:03:41;1.80;68.90
78345;DHT22;67620;51.134;6.548;2023-02-26T03:06:07;1.80;69.30
78345;DHT22;67620;51.134;6.548;2023-02-26T03:08:36;1.80;69.40
78345;DHT22;67620;51.134;6.548;2023-02-26T03:11:03;1.70;69.50
78345;DHT22;67620;51.134;6.548;2023-02-26T03:13:28;1.70;69.50
78345;DHT22;67620;51.134;6.548;2023-02-26T03:19:30;1.60;69.60
78345;DHT22;67620;51.134;6.548;2023-02-26T03:22:10;1.70;69.20
78345;DHT22;67620;51.134;6.548;2023-02-26T03:25:06;1.60;69.00
78345;DHT22;67620;51.134;6.548;2023-02-26T03:30:18;1.60;68.90
78345;DHT22;67620;51.134;6.548;2023-02-26T03:38:06;1.60;67.50
78345;DHT22;67620;51.134;6.548;2023-02-26T03:40:42;1.60;67.30
78345;DHT22;67620;51.134;6.548;2023-02-26T03:43:46;1.50;66.90
78345;DHT22;67620;51.134;6.548;2023-02-26T03:46:18;1.50;67.00
78345;DHT22;67620;51.134;6.548;2023-02-26T03:48:47;1.50;67.10
78345;DHT22;67620;51.134;6.548;2023-02-26T03:51:16;1.50;66.90
78345;DHT22;67620;51.134;6.548;2023-02-26T03:54:21;1.60;66.80
78345;DHT22;67620;51.134;6.548;2023-02-26T03:56:48;1.50;67.00
78345;DHT22;67620;51.134;6.548;2023-02-26T03:59:15;1.50;67.20
78345;DHT22;67620;51.134;6.548;2023-02-26T04:01:55;1.50;67.00
78345;DHT22;67620;51.134;6.548;2023-02-26T04:04:48;1.50;67.10
78345;DHT22;67620;51.134;6.548;2023-02-26T04:07:17;1.50;67.40
78345;DHT22;67620;51.134;6.548;2023-02-26T04:09:48;1.50;67.00
78345;DHT22;67620;51.134;6.548;2023-02-26T04:12:14;1.50;67.60
78345;DHT22;67620;51.134;6.548;2023-02-26T04:14:44;1.50;67.50
78345;DHT22;67620;51.134;6.548;2023-02-26T04:17:09;1.40;67.10
78345;DHT22;67620;51.134;6.548;2023-02-26T04:19:35;1.40;67.10
78345;DHT22;67620;51.134;6.548;2023-02-26T04:22:00;1.40;67.50
78345;DHT22;67620;51.134;6.548;2023-02-26T04:24:26;1.30;67.50
78345;DHT22;67620;51.134;6.548;2023-02-26T04:26:51;1.30;67.50
78345;DHT22;67620;51.134;6.548;2023-02-26T04:29:17;1.30;67.50
78345;DHT22;67620;51.134;6.548;2023-02-26T04:31:42;1.30;67.90
78345;DHT22;67620;51.134;6.548;2023-02-26T04:34:08;1.20;68.00
78345;DHT22;67620;51.134;6.548;2023-02-26T04:36:33;1.20;68.20
78345;DHT22;67620;51.134;6.548;2023-02-26T04:38:59;1.20;68.50
78345;DHT22;67620;51.134;6.548;2023-02-26T04:41:24;1.30;68.70
78345;DHT22;67620;51.134;6.548;2023-02-26T04:43:50;1.20;68.70
78345;DHT22;67620;51.134;6.548;2023-02-26T04:46:15;1.20;69.00
78345;DHT22;67620;51.134;6.548;2023-02-26T04:48:41;1.30;69.10
78345;DHT22;67620;51.134;6.548;2023-02-26T04:51:06;1.20;69.10
78345;DHT22;67620;51.134;6.548;2023-02-26T04:53:32;1.20;68.90
78345;DHT22;67620;51.134;6.548;2023-02-26T04:55:57;1.20;69.00
78345;DHT22;67620;51.134;6.548;2023-02-26T04:58:23;1.20;69.00
78345;DHT22;67620;51.134;6.548;2023-02-26T05:00:49;1.10;69.20
78345;DHT22;67620;51.134;6.548;2023-02-26T05:03:16;1.10;69.40
78345;DHT22;67620;51.134;6.548;2023-02-26T05:05:42;1.10;69.50
78345;DHT22;67620;51.134;6.548;2023-02-26T05:08:07;1.10;69.40
78345;DHT22;67620;51.134;6.548;2023-02-26T05:10:33;1.10;69.30
78345;DHT22;67620;51.134;6.548;2023-02-26T05:12:58;1.00;69.60
78345;DHT22;67620;51.134;6.548;2023-02-26T05:15:24;1.00;69.90
78345;DHT22;67620;51.134;6.548;2023-02-26T05:17:49;1.00;69.80
78345;DHT22;67620;51.134;6.548;2023-02-26T05:20:15;1.10;69.70
78345;DHT22;67620;51.134;6.548;2023-02-26T05:22:41;1.10;69.70
78345;DHT22;67620;51.134;6.548;2023-02-26T05:25:08;1.10;69.50
78345;DHT22;67620;51.134;6.548;2023-02-26T05:27:34;1.00;69.60
78345;DHT22;67620;51.134;6.548;2023-02-26T05:29:59;1.00;69.20
78345;DHT22;67620;51.134;6.548;2023-02-26T05:32:26;1.00;69.20
78345;DHT22;67620;51.134;6.548;2023-02-26T05:34:51;1.00;69.20
78345;DHT22;67620;51.134;6.548;2023-02-26T05:37:19;1.00;69.00
78345;DHT22;67620;51.134;6.548;2023-02-26T05:39:45;0.90;69.10
78345;DHT22;67620;51.134;6.548;2023-02-26T05:42:10;1.00;69.10
78345;DHT22;67620;51.134;6.548;2023-02-26T05:44:36;1.00;68.80
78345;DHT22;67620;51.134;6.548;2023-02-26T05:47:01;1.00;68.70
78345;DHT22;67620;51.134;6.548;2023-02-26T05:49:27;0.90;68.60
78345;DHT22;67620;51.134;6.548;2023-02-26T05:51:53;0.90;68.50
78345;DHT22;67620;51.134;6.548;2023-02-26T05:54:18;0.90;68.60
78345;DHT22;67620;51.134;6.548;2023-02-26T05:56:44;0.90;68.50
78345;DHT22;67620;51.134;6.548;2023-02-26T05:59:09;0.90;68.10
78345;DHT22;67620;51.134;6.548;2023-02-26T06:01:35;0.80;68.30
78345;DHT22;67620;51.134;6.548;2023-02-26T06:04:05;0.80;68.00
78345;DHT22;67620;51.134;6.548;2023-02-26T06:06:31;0.90;67.90
78345;DHT22;67620;51.134;6.548;2023-02-26T06:08:56;0.90;67.80
78345;DHT22;67620;51.134;6.548;2023-02-26T06:11:22;0.80;67.60
78345;DHT22;67620;51.134;6.548;2023-02-26T06:13:48;0.80;67.70
78345;DHT22;67620;51.134;6.548;2023-02-26T06:16:14;0.80;67.80
78345;DHT22;67620;51.134;6.548;2023-02-26T06:18:39;0.80;67.20
78345;DHT22;67620;51.134;6.548;2023-02-26T06:21:05;0.80;67.50
78345;DHT22;67620;51.134;6.548;2023-02-26T06:26:20;0.80;67.50
78345;DHT22;67620;51.134;6.548;2023-02-26T06:28:46;0.80;67.50
78345;DHT22;67620;51.134;6.548;2023-02-26T06:31:11;0.80;67.50
78345;DHT22;67620;51.134;6.548;2023-02-26T06:33:37;0.80;67.10
78345;DHT22;67620;51.134;6.548;2023-02-26T06:36:02;0.80;67.10
78345;DHT22;67620;51.134;6.548;2023-02-26T06:38:31;0.70;67.00
78345;DHT22;67620;51.134;6.548;2023-02-26T06:40:56;0.80;67.10
78345;DHT22;67620;51.134;6.548;2023-02-26T06:43:22;0.80;67.10
78345;DHT22;67620;51.134;6.548;2023-02-26T06:45:48;0.80;67.20
78345;DHT22;67620;51.134;6.548;2023-02-26T06:48:14;0.80;67.10
78345;DHT22;67620;51.134;6.548;2023-02-26T06:50:39;0.80;67.10
78345;DHT22;67620;51.134;6.548;2023-02-26T06:53:05;0.80;67.00
78345;DHT22;67620;51.134;6.548;2023-02-26T06:55:31;0.80;66.90
78345;DHT22;67620;51.134;6.548;2023-02-26T06:57:57;0.80;66.90
78345;DHT22;67620;51.134;6.548;2023-02-26T07:00:24;0.80;66.80
78345;DHT22;67620;51.134;6.548;2023-02-26T07:02:50;0.80;66.70
78345;DHT22;67620;51.134;6.548;2023-02-26T07:05:16;0.80;66.70
78345;DHT22;67620;51.134;6.548;2023-02-26T07:07:42;0.80;66.60
78345;DHT22;67620;51.134;6.548;2023-02-26T07:10:09;0.80;66.70
78345;DHT22;67620;51.134;6.548;2023-02-26T07:12:35;0.80;67.00
78345;DHT22;67620;51.134;6.548;2023-02-26T07:15:03;0.80;66.70
78345;DHT22;67620;51.134;6.548;2023-02-26T07:17:29;0.90;66.60
78345;DHT22;67620;51.134;6.548;2023-02-26T07:19:54;0.90;66.70
78345;DHT22;67620;51.134;6.548;2023-02-26T07:22:20;0.90;66.90
78345;DHT22;67620;51.134;6.548;2023-02-26T07:24:46;0.80;67.30
78345;DHT22;67620;51.134;6.548;2023-02-26T07:27:11;0.90;66.80
78345;DHT22;67620;51.134;6.548;2023-02-26T07:29:37;0.90;67.10
78345;DHT22;67620;51.134;6.548;2023-02-26T07:32:03;0.90;67.00
78345;DHT22;67620;51.134;6.548;2023-02-26T07:34:29;0.90;66.80
78345;DHT22;67620;51.134;6.548;2023-02-26T07:36:54;1.00;66.60
78345;DHT22;67620;51.134;6.548;2023-02-26T07:39:20;1.00;66.80
78345;DHT22;67620;51.134;6.548;2023-02-26T07:41:45;1.10;66.60
78345;DHT22;67620;51.134;6.548;2023-02-26T07:44:11;1.10;66.70
78345;DHT22;67620;51.134;6.548;2023-02-26T07:46:36;1.20;66.80
78345;DHT22;67620;51.134;6.548;2023-02-26T07:49:02;1.20;66.70
78345;DHT22;67620;51.134;6.548;2023-02-26T07:51:28;1.20;66.60
78345;DHT22;67620;51.134;6.548;2023-02-26T07:53:53;1.20;66.20
78345;DHT22;67620;51.134;6.548;2023-02-26T07:56:19;1.30;65.90
78345;DHT22;67620;51.134;6.548;2023-02-26T07:58:44;1.40;65.50
78345;DHT22;67620;51.134;6.548;2023-02-26T08:01:10;1.50;65.10
78345;DHT22;67620;51.134;6.548;2023-02-26T08:03:35;1.60;64.90
78345;DHT22;67620;51.134;6.548;2023-02-26T08:06:01;1.60;64.50
78345;DHT22;67620;51.134;6.548;2023-02-26T08:08:27;1.90;63.50
78345;DHT22;67620;51.134;6.548;2023-02-26T08:10:53;4.20;58.20
78345;DHT22;67620;51.134;6.548;2023-02-26T08:13:19;5.80;52.70
78345;DHT22;67620;51.134;6.548;2023-02-26T08:15:44;5.10;52.90
78345;DHT22;67620;51.134;6.548;2023-02-26T08:18:10;3.90;56.00
78345;DHT22;67620;51.134;6.548;2023-02-26T08:20:36;3.30;58.20
78345;DHT22;67620;51.134;6.548;2023-02-26T08:23:02;3.10;59.00
78345;DHT22;67620;51.134;6.548;2023-02-26T08:25:27;3.10;59.90
78345;DHT22;67620;51.134;6.548;2023-02-26T08:27:53;3.10;60.00
78345;DHT22;67620;51.134;6.548;2023-02-26T08:30:19;5.00;55.90
78345;DHT22;67620;51.134;6.548;2023-02-26T08:32:44;7.30;50.30
78345;DHT22;67620;51.134;6.548;2023-02-26T08:35:10;8.70;45.80
78345;DHT22;67620;51.134;6.548;2023-02-26T08:37:36;9.70;43.60
78345;DHT22;67620;51.134;6.548;2023-02-26T08:40:04;10.30;41.70
78345;DHT22;67620;51.134;6.548;2023-02-26T08:42:30;10.70;40.40
78345;DHT22;67620;51.134;6.548;2023-02-26T08:44:55;10.90;40.60
78345;DHT22;67620;51.134;6.548;2023-02-26T08:47:21;9.00;42.30
78345;DHT22;67620;51.134;6.548;2023-02-26T08:49:46;7.20;46.40
78345;DHT22;67620;51.134;6.548;2023-02-26T08:52:12;6.30;49.30
78345;DHT22;67620;51.134;6.548;2023-02-26T08:54:37;9.00;44.60
78345;DHT22;67620;51.134;6.548;2023-02-26T08:57:03;10.80;40.80
78345;DHT22;67620;51.134;6.548;2023-02-26T08:59:29;11.90;38.80
78345;DHT22;67620;51.134;6.548;2023-02-26T09:01:54;12.70;36.80
78345;DHT22;67620;51.134;6.548;2023-02-26T09:04:20;13.20;36.30
78345;DHT22;67620;51.134;6.548;2023-02-26T09:06:45;13.50;35.20
78345;DHT22;67620;51.134;6.548;2023-02-26T09:09:11;13.90;35.00
78345;DHT22;67620;51.134;6.548;2023-02-26T09:11:36;14.20;34.20
78345;DHT22;67620;51.134;6.548;2023-02-26T09:14:03;14.80;33.30
78345;DHT22;67620;51.134;6.548;2023-02-26T09:16:29;15.00;33.00
78345;DHT22;67620;51.134;6.548;2023-02-26T09:18:55;15.50;32.40
78345;DHT22;67620;51.134;6.548;2023-02-26T09:21:21;15.70;31.30
78345;DHT22;67620;51.134;6.548;2023-02-26T09:23:47;15.80;31.10
78345;DHT22;67620;51.134;6.548;2023-02-26T09:26:13;14.80;32.40
78345;DHT22;67620;51.134;6.548;2023-02-26T09:28:39;12.40;34.70
78345;DHT22;67620;51.134;6.548;2023-02-26T09:31:04;10.30;38.10
78345;DHT22;67620;51.134;6.548;2023-02-26T09:33:31;9.60;40.30
78345;DHT22;67620;51.134;6.548;2023-02-26T09:35:57;9.30;41.10
78345;DHT22;67620;51.134;6.548;2023-02-26T09:38:23;9.00;41.90
78345;DHT22;67620;51.134;6.548;2023-02-26T09:43:55;8.80;42.10
78345;DHT22;67620;51.134;6.548;2023-02-26T09:49:29;8.40;42.40
78345;DHT22;67620;51.134;6.548;2023-02-26T09:54:35;8.20;42.30
78345;DHT22;67620;51.134;6.548;2023-02-26T09:57:03;8.10;42.50
78345;DHT22;67620;51.134;6.548;2023-02-26T09:59:32;8.20;43.60
78345;DHT22;67620;51.134;6.548;2023-02-26T10:02:39;8.20;43.10
78345;DHT22;67620;51.134;6.548;2023-02-26T10:05:22;8.10;43.30
78345;DHT22;67620;51.134;6.548;2023-02-26T10:12:48;7.80;43.00
78345;DHT22;67620;51.134;6.548;2023-02-26T10:15:17;7.60;45.00
78345;DHT22;67620;51.134;6.548;2023-02-26T10:17:58;7.40;44.00
78345;DHT22;67620;51.134;6.548;2023-02-26T10:23:25;7.30;44.50
78345;DHT22;67620;51.134;6.548;2023-02-26T10:26:02;7.30;43.40
78345;DHT22;67620;51.134;6.548;2023-02-26T10:28:58;7.30;44.40
78345;DHT22;67620;51.134;6.548;2023-02-26T10:31:34;7.10;43.50
78345;DHT22;67620;51.134;6.548;2023-02-26T10:34:26;7.10;43.60
78345;DHT22;67620;51.134;6.548;2023-02-26T10:36:59;6.90;43.30
78345;DHT22;67620;51.134;6.548;2023-02-26T10:39:59;6.70;43.10
78345;DHT22;67620;51.134;6.548;2023-02-26T10:42:42;6.60;43.80
78345;DHT22;67620;51.134;6.548;2023-02-26T10:45:29;6.30;43.50
78345;DHT22;67620;51.134;6.548;2023-02-26T10:48:08;6.50;43.80
78345;DHT22;67620;51.134;6.548;2023-02-26T10:50:35;6.50;43.60
78345;DHT22;67620;51.134;6.548;2023-02-26T10:53:01;6.50;43.80
78345;DHT22;67620;51.134;6.548;2023-02-26T10:55:35;6.60;43.80
78345;DHT22;67620;51.134;6.548;2023-02-26T10:58:11;6.50;43.60
78345;DHT22;67620;51.134;6.548;2023-02-26T11:00:41;6.70;43.50
78345;DHT22;67620;51.134;6.548;2023-02-26T11:03:17;6.60;42.40
78345;DHT22;67620;51.134;6.548;2023-02-26T11:05:44;6.50;41.90
78345;DHT22;67620;51.134;6.548;2023-02-26T11:08:32;6.30;42.90
78345;DHT22;67620;51.134;6.548;2023-02-26T11:11:00;6.20;41.60
78345;DHT22;67620;51.134;6.548;2023-02-26T11:13:29;6.10;43.00
78345;DHT22;67620;51.134;6.548;2023-02-26T11:15:59;6.10;42.30
78345;DHT22;67620;51.134;6.548;2023-02-26T11:18:40;5.90;42.70
78345;DHT22;67620;51.134;6.548;2023-02-26T11:21:08;5.60;43.70
78345;DHT22;67620;51.134;6.548;2023-02-26T11:23:40;5.80;44.20
78345;DHT22;67620;51.134;6.548;2023-02-26T11:26:17;6.00;44.30
78345;DHT22;67620;51.134;6.548;2023-02-26T11:28:48;6.20;43.80
78345;DHT22;67620;51.134;6.548;2023-02-26T11:31:20;6.00;43.50
78345;DHT22;67620;51.134;6.548;2023-02-26T11:33:52;5.90;42.80
78345;DHT22;67620;51.134;6.548;2023-02-26T11:36:23;5.90;43.90
78345;DHT22;67620;51.134;6.548;2023-02-26T11:39:00;6.00;44.00
78345;DHT22;67620;51.134;6.548;2023-02-26T11:41:27;6.00;43.40
78345;DHT22;67620;51.134;6.548;2023-02-26T11:44:01;6.00;43.90
78345;DHT22;67620;51.134;6.548;2023-02-26T11:46:27;5.90;44.00
78345;DHT22;67620;51.134;6.548;2023-02-26T11:48:54;6.00;43.90
78345;DHT22;67620;51.134;6.548;2023-02-26T11:51:24;6.00;43.60
78345;DHT22;67620;51.134;6.548;2023-02-26T11:53:53;5.80;44.10
78345;DHT22;67620;51.134;6.548;2023-02-26T11:56:31;5.80;43.70
78345;DHT22;67620;51.134;6.548;2023-02-26T11:59:04;5.80;44.20
78345;DHT22;67620;51.134;6.548;2023-02-26T12:01:31;5.80;44.00
78345;DHT22;67620;51.134;6.548;2023-02-26T12:04:00;5.80;43.20
78345;DHT22;67620;51.134;6.548;2023-02-26T12:06:29;5.80;43.50
78345;DHT22;67620;51.134;6.548;2023-02-26T12:08:55;5.90;42.90
78345;DHT22;67620;51.134;6.548;2023-02-26T12:11:41;5.90;42.00
78345;DHT22;67620;51.134;6.548;2023-02-26T12:20:31;6.20;42.60
78345;DHT22;67620;51.134;6.548;2023-02-26T12:23:08;6.30;42.80
78345;DHT22;67620;51.134;6.548;2023-02-26T12:26:04;6.30;41.60
78345;DHT22;67620;51.134;6.548;2023-02-26T12:28:46;6.20;41.30
78345;DHT22;67620;51.134;6.548;2023-02-26T12:31:39;6.20;41.40
78345;DHT22;67620;51.134;6.548;2023-02-26T12:51:38;6.30;40.30
78345;DHT22;67620;51.134;6.548;2023-02-26T12:54:14;6.00;40.50
78345;DHT22;67620;51.134;6.548;2023-02-26T12:57:02;6.10;40.70
78345;DHT22;67620;51.134;6.548;2023-02-26T13:08:14;6.20;41.30
78345;DHT22;67620;51.134;6.548;2023-02-26T13:10:56;6.30;38.90
78345;DHT22;67620;51.134;6.548;2023-02-26T13:13:54;6.30;41.00
78345;DHT22;67620;51.134;6.548;2023-02-26T13:21:50;6.20;39.50
78345;DHT22;67620;51.134;6.548;2023-02-26T13:24:25;6.10;38.70
78345;DHT22;67620;51.134;6.548;2023-02-26T13:26:53;6.20;38.90
78345;DHT22;67620;51.134;6.548;2023-02-26T13:29:26;6.10;38.50
78345;DHT22;67620;51.134;6.548;2023-02-26T13:32:07;6.20;39.20
78345;DHT22;67620;51.134;6.548;2023-02-26T13:34:58;6.20;39.60
78345;DHT22;67620;51.134;6.548;2023-02-26T13:37:50;6.00;38.00
78345;DHT22;67620;51.134;6.548;2023-02-26T13:45:37;6.10;40.00
78345;DHT22;67620;51.134;6.548;2023-02-26T13:51:10;6.20;40.10
78345;DHT22;67620;51.134;6.548;2023-02-26T13:56:14;6.10;40.90
78345;DHT22;67620;51.134;6.548;2023-02-26T13:58:42;6.10;40.80
78345;DHT22;67620;51.134;6.548;2023-02-26T14:01:17;6.00;39.10
78345;DHT22;67620;51.134;6.548;2023-02-26T14:03:51;5.90;39.10
78345;DHT22;67620;51.134;6.548;2023-02-26T14:09:28;5.90;39.40
78345;DHT22;67620;51.134;6.548;2023-02-26T14:20:06;6.00;41.10
78345;DHT22;67620;51.134;6.548;2023-02-26T14:22:35;6.00;40.30
78345;DHT22;67620;51.134;6.548;2023-02-26T14:27:45;6.00;40.80
78345;DHT22;67620;51.134;6.548;2023-02-26T14:30:17;6.00;39.00
78345;DHT22;67620;51.134;6.548;2023-02-26T14:32:52;5.80;39.60
78345;DHT22;67620;51.134;6.548;2023-02-26T14:35:24;5.90;39.00
78345;DHT22;67620;51.134;6.548;2023-02-26T14:38:29;5.90;38.00
78345;DHT22;67620;51.134;6.548;2023-02-26T14:41:05;5.80;39.90
78345;DHT22;67620;51.134;6.548;2023-02-26T14:43:37;5.90;40.30
78345;DHT22;67620;51.134;6.548;2023-02-26T14:46:04;5.80;40.00
78345;DHT22;67620;51.134;6.548;2023-02-26T14:48:31;5.80;41.40
78345;DHT22;67620;51.134;6.548;2023-02-26T14:56:52;5.80;41.00
78345;DHT22;67620;51.134;6.548;2023-02-26T15:02:24;5.70;41.10
78345;DHT22;67620;51.134;6.548;2023-02-26T15:10:48;5.60;40.20
78345;DHT22;67620;51.134;6.548;2023-02-26T15:13:40;5.60;40.30
78345;DHT22;67620;51.134;6.548;2023-02-26T15:16:15;5.60;39.60
78345;DHT22;67620;51.134;6.548;2023-02-26T15:21:47;5.40;39.50
78345;DHT22;67620;51.134;6.548;2023-02-26T15:24:15;5.50;40.30
78345;DHT22;67620;51.134;6.548;2023-02-26T15:26:52;5.50;40.30
78345;DHT22;67620;51.134;6.548;2023-02-26T15:29:23;5.40;39.60
78345;DHT22;67620;51.134;6.548;2023-02-26T15:31:56;5.40;39.80
78345;DHT22;67620;51.134;6.548;2023-02-26T15:34:22;5.30;39.80
78345;DHT22;67620;51.134;6.548;2023-02-26T15:36:49;5.40;40.60
78345;DHT22;67620;51.134;6.548;2023-02-26T15:39:16;5.40;40.90
78345;DHT22;67620;51.134;6.548;2023-02-26T15:41:44;5.40;41.60
78345;DHT22;67620;51.134;6.548;2023-02-26T15:44:18;5.40;41.50
78345;DHT22;67620;51.134;6.548;2023-02-26T15:46:47;5.40;41.20
78345;DHT22;67620;51.134;6.548;2023-02-26T15:49:21;5.30;41.90
78345;DHT22;67620;51.134;6.548;2023-02-26T15:51:47;5.30;42.40
78345;DHT22;67620;51.134;6.548;2023-02-26T15:54:17;5.20;41.70
78345;DHT22;67620;51.134;6.548;2023-02-26T15:56:46;5.20;42.30
78345;DHT22;67620;51.134;6.548;2023-02-26T15:59:18;5.30;42.10
78345;DHT22;67620;51.134;6.548;2023-02-26T16:01:46;5.30;42.70
78345;DHT22;67620;51.134;6.548;2023-02-26T16:04:15;5.20;41.80
78345;DHT22;67620;51.134;6.548;2023-02-26T16:06:44;5.20;42.00
78345;DHT22;67620;51.134;6.548;2023-02-26T16:09:19;5.20;42.20
78345;DHT22;67620;51.134;6.548;2023-02-26T16:11:46;5.10;41.80
78345;DHT22;67620;51.134;6.548;2023-02-26T16:14:21;5.10;42.30
78345;DHT22;67620;51.134;6.548;2023-02-26T16:16:52;5.00;42.50
78345;DHT22;67620;51.134;6.548;2023-02-26T16:19:40;5.00;42.70
78345;DHT22;67620;51.134;6.548;2023-02-26T16:22:29;5.00;42.40
78345;DHT22;67620;51.134;6.548;2023-02-26T16:25:06;5.00;42.70
78345;DHT22;67620;51.134;6.548;2023-02-26T16:27:33;4.90;42.20
78345;DHT22;67620;51.134;6.548;2023-02-26T16:30:00;4.90;42.60
78345;DHT22;67620;51.134;6.548;2023-02-26T16:32:29;4.90;43.10
78345;DHT22;67620;51.134;6.548;2023-02-26T16:34:58;4.80;43.00
78345;DHT22;67620;51.134;6.548;2023-02-26T16:37:31;4.80;42.90
78345;DHT22;67620;51.134;6.548;2023-02-26T16:43:05;4.80;42.90
78345;DHT22;67620;51.134;6.548;2023-02-26T16:45:54;4.80;43.70
78345;DHT22;67620;51.134;6.548;2023-02-26T16:48:29;4.70;43.70
78345;DHT22;67620;51.134;6.548;2023-02-26T16:50:59;4.60;44.10
78345;DHT22;67620;51.134;6.548;2023-02-26T16:53:40;4.70;44.10
78345;DHT22;67620;51.134;6.548;2023-02-26T16:56:16;4.70;44.20
78345;DHT22;67620;51.134;6.548;2023-02-26T16:59:05;4.70;44.40
78345;DHT22;67620;51.134;6.548;2023-02-26T17:01:59;4.60;44.80
78345;DHT22;67620;51.134;6.548;2023-02-26T17:04:30;4.60;44.50
78345;DHT22;67620;51.134;6.548;2023-02-26T17:06:57;4.50;45.20
78345;DHT22;67620;51.134;6.548;2023-02-26T17:09:38;4.50;44.80
78345;DHT22;67620;51.134;6.548;2023-02-26T17:15:17;4.40;45.40
78345;DHT22;67620;51.134;6.548;2023-02-26T17:17:43;4.50;45.20
78345;DHT22;67620;51.134;6.548;2023-02-26T17:20:09;4.40;45.10
78345;DHT22;67620;51.134;6.548;2023-02-26T17:22:35;4.40;45.70
78345;DHT22;67620;51.134;6.548;2023-02-26T17:25:01;4.40;45.50
78345;DHT22;67620;51.134;6.548;2023-02-26T17:27:34;4.30;45.50
78345;DHT22;67620;51.134;6.548;2023-02-26T17:30:02;4.30;45.30
78345;DHT22;67620;51.134;6.548;2023-02-26T17:32:29;4.30;45.90
78345;DHT22;67620;51.134;6.548;2023-02-26T17:34:57;4.30;46.00
78345;DHT22;67620;51.134;6.548;2023-02-26T17:37:30;4.20;46.30
78345;DHT22;67620;51.134;6.548;2023-02-26T17:39:57;4.20;45.90
78345;DHT22;67620;51.134;6.548;2023-02-26T17:42:24;4.20;46.60
78345;DHT22;67620;51.134;6.548;2023-02-26T17:44:50;4.20;46.20
78345;DHT22;67620;51.134;6.548;2023-02-26T17:47:18;4.20;46.90
78345;DHT22;67620;51.134;6.548;2023-02-26T17:49:44;4.10;46.60
78345;DHT22;67620;51.134;6.548;2023-02-26T17:52:12;4.10;46.50
78345;DHT22;67620;51.134;6.548;2023-02-26T17:54:37;4.10;46.80
78345;DHT22;67620;51.134;6.548;2023-02-26T17:57:04;4.00;47.20
78345;DHT22;67620;51.134;6.548;2023-02-26T17:59:30;4.00;47.20
78345;DHT22;67620;51.134;6.548;2023-02-26T18:01:56;4.00;46.80
78345;DHT22;67620;51.134;6.548;2023-02-26T18:04:21;4.00;46.90
78345;DHT22;67620;51.134;6.548;2023-02-26T18:06:47;3.90;46.80
78345;DHT22;67620;51.134;6.548;2023-02-26T18:09:13;3.90;46.80
78345;DHT22;67620;51.134;6.548;2023-02-26T18:11:39;3.90;46.50
78345;DHT22;67620;51.134;6.548;2023-02-26T18:14:06;3.90;46.60
78345;DHT22;67620;51.134;6.548;2023-02-26T18:16:37;3.90;46.90
78345;DHT22;67620;51.134;6.548;2023-02-26T18:19:03;3.90;46.90
78345;DHT22;67620;51.134;6.548;2023-02-26T18:21:30;3.80;46.80
78345;DHT22;67620;51.134;6.548;2023-02-26T18:23:55;3.80;46.90
78345;DHT22;67620;51.134;6.548;2023-02-26T18:26:23;3.80;47.00
78345;DHT22;67620;51.134;6.548;2023-02-26T18:28:50;3.80;47.10
78345;DHT22;67620;51.134;6.548;2023-02-26T18:31:16;3.80;47.20
78345;DHT22;67620;51.134;6.548;2023-02-26T18:33:42;3.80;47.20
78345;DHT22;67620;51.134;6.548;2023-02-26T18:36:15;3.80;47.30